createdAt,value
2018-05-16T00:02:24.360Z,17.10
2018-05-16T00:04:52.041Z,17.10
2018-05-16T00:07:19.736Z,17.20
2018-05-16T00:09:47.276Z,17.10
2018-05-16T00:12:14.907Z,17.10
2018-05-16T00:14:43.259Z,17.00
2018-05-16T00:17:10.998Z,17.00
2018-05-16T00:19:38.583Z,17.00
2018-05-16T00:22:06.483Z,17.00
2018-05-16T00:24:34.011Z,17.00
2018-05-16T00:27:01.586Z,16.90
2018-05-16T00:29:29.984Z,16.80
2018-05-16T00:31:58.307Z,16.80
2018-05-16T00:34:25.957Z,16.80
2018-05-16T00:36:53.633Z,16.90
2018-05-16T00:39:22.991Z,16.80
2018-05-16T00:41:51.055Z,16.80
2018-05-16T00:44:18.931Z,16.80
2018-05-16T00:46:46.472Z,16.80
2018-05-16T00:49:14.851Z,16.70
2018-05-16T00:51:42.493Z,16.70
2018-05-16T00:54:10.859Z,16.80
2018-05-16T00:56:38.387Z,16.80
2018-05-16T00:59:07.443Z,16.80
2018-05-16T01:01:35.312Z,16.80
2018-05-16T01:04:02.871Z,16.90
2018-05-16T01:06:30.411Z,16.80
2018-05-16T01:09:05.132Z,16.90
2018-05-16T01:11:33.555Z,16.80
2018-05-16T01:14:02.077Z,16.80
2018-05-16T01:16:29.604Z,16.80
2018-05-16T01:18:58.178Z,16.70
2018-05-16T01:21:25.703Z,16.70
2018-05-16T01:23:53.235Z,16.80
2018-05-16T01:26:21.303Z,16.70
2018-05-16T01:28:48.839Z,16.80
2018-05-16T01:31:17.206Z,16.60
2018-05-16T01:33:45.512Z,16.70
2018-05-16T01:36:14.223Z,16.70
2018-05-16T01:38:41.747Z,16.70
2018-05-16T01:41:09.291Z,16.70
2018-05-16T01:43:37.036Z,16.70
2018-05-16T01:46:05.974Z,16.70
2018-05-16T01:48:33.570Z,16.70
2018-05-16T01:51:01.200Z,16.70
2018-05-16T01:53:28.901Z,16.70
2018-05-16T01:55:56.442Z,16.70
2018-05-16T01:58:24.170Z,16.60
2018-05-16T02:00:51.886Z,16.60
2018-05-16T02:03:20.426Z,16.60
2018-05-16T02:05:47.957Z,16.60
2018-05-16T02:08:15.492Z,16.60
2018-05-16T02:10:43.462Z,16.60
2018-05-16T02:13:11.012Z,16.50
2018-05-16T02:15:38.572Z,16.50
2018-05-16T02:18:06.114Z,16.50
2018-05-16T02:20:34.436Z,16.40
2018-05-16T02:23:02.068Z,16.40
2018-05-16T02:25:29.719Z,16.40
2018-05-16T02:27:57.259Z,16.50
2018-05-16T02:30:24.933Z,16.40
2018-05-16T02:32:52.579Z,16.40
2018-05-16T02:35:21.082Z,16.40
2018-05-16T02:37:49.392Z,16.30
2018-05-16T02:40:16.935Z,16.30
2018-05-16T02:42:44.524Z,16.40
2018-05-16T02:45:12.074Z,16.40
2018-05-16T02:47:39.710Z,16.40
2018-05-16T02:50:07.227Z,16.30
2018-05-16T02:52:35.723Z,16.30
2018-05-16T02:55:04.050Z,16.40
2018-05-16T02:57:31.582Z,16.30
2018-05-16T03:00:00.059Z,16.40
2018-05-16T03:02:27.923Z,16.30
2018-05-16T03:04:55.464Z,16.30
2018-05-16T03:07:23.055Z,16.20
2018-05-16T03:09:51.025Z,16.30
2018-05-16T03:12:18.571Z,16.30
2018-05-16T03:14:46.255Z,16.40
2018-05-16T03:17:13.820Z,16.30
2018-05-16T03:19:41.403Z,16.40
2018-05-16T03:22:08.951Z,16.30
2018-05-16T03:24:37.296Z,16.30
2018-05-16T03:27:04.838Z,16.30
2018-05-16T03:29:32.371Z,16.40
2018-05-16T03:31:59.911Z,16.30
2018-05-16T03:34:27.507Z,16.20
2018-05-16T03:36:55.035Z,16.30
2018-05-16T03:39:22.567Z,16.30
2018-05-16T03:41:50.136Z,16.30
2018-05-16T03:44:17.678Z,16.30
2018-05-16T03:46:45.222Z,16.30
2018-05-16T03:49:12.962Z,16.40
2018-05-16T03:51:41.288Z,16.30
2018-05-16T03:54:08.827Z,16.30
2018-05-16T03:56:36.431Z,16.30
2018-05-16T03:59:16.703Z,16.40
2018-05-16T04:01:56.294Z,16.30
2018-05-16T04:04:23.835Z,16.30
2018-05-16T04:06:51.561Z,16.30
2018-05-16T04:09:19.968Z,16.30
2018-05-16T04:11:47.506Z,16.40
2018-05-16T04:14:15.104Z,16.30
2018-05-16T04:16:42.687Z,16.30
2018-05-16T04:19:10.986Z,16.40
2018-05-16T04:21:39.297Z,16.40
2018-05-16T04:24:06.838Z,16.30
2018-05-16T04:26:34.383Z,16.40
2018-05-16T04:29:01.947Z,16.40
2018-05-16T04:31:29.507Z,16.40
2018-05-16T04:33:57.038Z,16.40
2018-05-16T04:36:25.453Z,16.40
2018-05-16T04:38:53.754Z,16.30
2018-05-16T04:41:22.212Z,16.30
2018-05-16T04:43:50.696Z,16.40
2018-05-16T04:46:18.656Z,16.40
2018-05-16T04:48:46.228Z,16.30
2018-05-16T04:51:13.766Z,16.40
2018-05-16T04:53:41.339Z,16.50
2018-05-16T04:56:08.884Z,16.50
2018-05-16T04:58:37.182Z,16.40
2018-05-16T05:01:05.869Z,16.40
2018-05-16T05:03:34.179Z,16.40
2018-05-16T05:06:01.747Z,16.40
2018-05-16T05:08:29.303Z,16.40
2018-05-16T05:10:56.840Z,16.40
2018-05-16T05:13:24.389Z,16.40
2018-05-16T05:15:52.335Z,16.50
2018-05-16T05:18:20.862Z,16.50
2018-05-16T05:20:49.048Z,16.50
2018-05-16T05:23:16.596Z,16.50
2018-05-16T05:25:44.910Z,16.50
2018-05-16T05:28:12.447Z,16.50
2018-05-16T05:30:39.990Z,16.50
2018-05-16T05:33:07.534Z,16.50
2018-05-16T05:35:35.076Z,16.50
2018-05-16T05:38:03.380Z,16.60
2018-05-16T05:40:30.915Z,16.50
2018-05-16T05:42:58.524Z,16.60
2018-05-16T05:45:26.051Z,16.60
2018-05-16T05:47:53.600Z,16.60
2018-05-16T05:50:21.148Z,16.70
2018-05-16T05:52:48.700Z,16.70
2018-05-16T05:55:17.011Z,16.80
2018-05-16T05:57:44.843Z,16.70
2018-05-16T06:00:12.468Z,16.80
2018-05-16T06:02:39.967Z,16.80
2018-05-16T06:05:07.519Z,16.80
2018-05-16T06:07:35.229Z,16.80
2018-05-16T06:10:03.503Z,16.80
2018-05-16T06:12:31.048Z,16.90
2018-05-16T06:14:58.703Z,16.90
2018-05-16T06:17:27.111Z,16.90
2018-05-16T06:19:55.505Z,16.90
2018-05-16T06:22:22.979Z,16.90
2018-05-16T06:24:51.069Z,16.80
2018-05-16T06:27:18.711Z,16.90
2018-05-16T06:29:46.922Z,16.80
2018-05-16T06:32:14.480Z,16.80
2018-05-16T06:34:42.804Z,16.80
2018-05-16T06:37:10.341Z,16.80
2018-05-16T06:39:38.649Z,16.90
2018-05-16T06:42:06.418Z,16.90
2018-05-16T06:44:33.974Z,16.90
2018-05-16T06:47:02.550Z,17.00
2018-05-16T06:49:30.114Z,17.00
2018-05-16T06:51:57.699Z,17.10
2018-05-16T06:54:25.440Z,17.10
2018-05-16T06:56:52.981Z,17.20
2018-05-16T06:59:20.773Z,17.30
2018-05-16T07:01:48.335Z,17.40
2018-05-16T07:04:15.876Z,17.40
2018-05-16T07:06:44.948Z,17.50
2018-05-16T07:09:12.635Z,17.50
2018-05-16T07:11:40.174Z,17.60
2018-05-16T07:14:07.709Z,17.50
2018-05-16T07:16:36.032Z,17.50
2018-05-16T07:19:03.568Z,17.50
2018-05-16T07:21:31.112Z,17.40
2018-05-16T07:23:58.795Z,17.40
2018-05-16T07:26:26.363Z,17.40
2018-05-16T07:28:53.903Z,17.40
2018-05-16T07:31:21.599Z,17.30
2018-05-16T07:33:49.154Z,17.40
2018-05-16T07:36:16.708Z,17.40
2018-05-16T07:38:45.009Z,17.60
2018-05-16T07:41:12.596Z,17.60
2018-05-16T07:43:40.878Z,17.80
2018-05-16T07:46:08.428Z,17.80
2018-05-16T07:48:36.839Z,18.20
2018-05-16T07:51:04.371Z,18.10
2018-05-16T07:53:31.924Z,18.40
2018-05-16T07:55:59.695Z,18.70
2018-05-16T07:58:27.173Z,19.10
2018-05-16T08:00:54.716Z,19.40
2018-05-16T08:03:22.302Z,19.70
2018-05-16T08:05:49.827Z,20.00
2018-05-16T08:08:18.155Z,20.30
2018-05-16T08:10:45.731Z,20.20
2018-05-16T08:13:13.319Z,20.40
2018-05-16T08:15:40.860Z,20.60
2018-05-16T08:18:08.435Z,20.70
2018-05-16T08:20:36.238Z,20.70
2018-05-16T08:23:03.802Z,20.70
2018-05-16T08:25:31.629Z,20.70
2018-05-16T08:27:59.941Z,21.20
2018-05-16T08:30:28.079Z,21.20
2018-05-16T08:32:55.615Z,21.50
2018-05-16T08:35:25.014Z,21.80
2018-05-16T08:37:53.332Z,21.70
2018-05-16T08:40:21.103Z,21.60
2018-05-16T08:42:48.813Z,21.50
2018-05-16T08:45:16.348Z,21.20
2018-05-16T08:47:44.116Z,21.00
2018-05-16T08:50:11.681Z,20.80
2018-05-16T08:52:39.217Z,20.70
2018-05-16T08:55:06.782Z,20.60
2018-05-16T08:57:34.348Z,20.50
2018-05-16T09:00:01.927Z,20.40
2018-05-16T09:02:29.615Z,20.40
2018-05-16T09:04:58.781Z,20.30
2018-05-16T09:07:26.342Z,20.30
2018-05-16T09:09:53.882Z,20.50
2018-05-16T09:12:22.199Z,21.00
2018-05-16T09:14:49.777Z,21.00
2018-05-16T09:17:17.387Z,21.50
2018-05-16T09:19:44.916Z,22.00
2018-05-16T09:22:12.478Z,22.60
2018-05-16T09:24:40.784Z,23.40
2018-05-16T09:27:08.347Z,23.40
2018-05-16T09:29:36.055Z,23.60
2018-05-16T09:32:03.730Z,23.70
2018-05-16T09:34:32.526Z,23.50
2018-05-16T09:37:00.095Z,23.40
2018-05-16T09:39:27.715Z,23.50
2018-05-16T09:41:55.365Z,23.40
2018-05-16T09:44:22.931Z,23.20
2018-05-16T09:46:50.507Z,23.10
2018-05-16T09:49:18.048Z,23.10
2018-05-16T09:51:45.712Z,23.30
2018-05-16T09:54:14.083Z,23.40
2018-05-16T09:56:41.618Z,23.40
2018-05-16T09:59:09.159Z,23.40
2018-05-16T10:01:36.820Z,23.70
2018-05-16T10:04:05.130Z,23.90
2018-05-16T10:06:32.823Z,23.90
2018-05-16T10:09:00.391Z,23.70
2018-05-16T10:11:28.287Z,23.40
2018-05-16T10:13:55.835Z,23.10
2018-05-16T10:16:23.375Z,22.90
2018-05-16T10:18:51.775Z,22.50
2018-05-16T10:21:20.102Z,22.50
2018-05-16T10:23:47.689Z,22.50
2018-05-16T10:26:15.710Z,22.90
2018-05-16T10:28:44.357Z,24.00
2018-05-16T10:31:11.900Z,23.90
2018-05-16T10:33:39.439Z,24.30
2018-05-16T10:36:07.157Z,24.60
2018-05-16T10:38:34.703Z,24.80
2018-05-16T10:41:03.026Z,24.60
2018-05-16T10:43:30.568Z,24.60
2018-05-16T10:45:58.892Z,23.90
2018-05-16T10:48:26.432Z,23.90
2018-05-16T10:50:54.759Z,23.20
2018-05-16T10:53:22.475Z,23.10
2018-05-16T10:55:50.021Z,22.90
2018-05-16T10:58:17.571Z,22.70
2018-05-16T11:00:45.875Z,22.40
2018-05-16T11:03:14.226Z,22.30
2018-05-16T11:05:41.675Z,22.30
2018-05-16T11:08:09.226Z,22.20
2018-05-16T11:10:36.885Z,22.10
2018-05-16T11:13:04.415Z,22.00
2018-05-16T11:15:32.728Z,21.90
2018-05-16T11:18:00.276Z,21.90
2018-05-16T11:20:28.611Z,21.90
2018-05-16T11:22:56.159Z,21.90
2018-05-16T11:25:23.719Z,21.80
2018-05-16T11:27:52.031Z,22.40
2018-05-16T11:30:19.570Z,22.40
2018-05-16T11:32:47.936Z,23.40
2018-05-16T11:35:15.483Z,23.40
2018-05-16T11:37:43.077Z,23.90
2018-05-16T11:40:10.639Z,24.30
2018-05-16T11:42:38.213Z,24.70
2018-05-16T11:45:05.800Z,25.00
2018-05-16T11:47:33.363Z,24.90
2018-05-16T11:50:00.907Z,24.80
2018-05-16T11:52:28.723Z,25.00
2018-05-16T11:54:56.302Z,25.10
2018-05-16T11:57:23.846Z,25.30
2018-05-16T11:59:51.462Z,25.20
2018-05-16T12:02:21.864Z,25.10
2018-05-16T12:04:49.411Z,24.60
2018-05-16T12:07:16.955Z,24.30
2018-05-16T12:09:45.276Z,23.70
2018-05-16T12:12:12.815Z,23.70
2018-05-16T12:14:41.275Z,23.40
2018-05-16T12:17:08.721Z,23.30
2018-05-16T12:19:36.286Z,23.20
2018-05-16T12:22:03.859Z,23.20
2018-05-16T12:24:31.399Z,23.20
2018-05-16T12:26:59.774Z,23.40
2018-05-16T12:29:27.335Z,23.40
2018-05-16T12:31:54.899Z,23.70
2018-05-16T12:34:22.444Z,23.90
2018-05-16T12:36:50.022Z,24.20
2018-05-16T12:39:17.569Z,24.40
2018-05-16T12:41:45.906Z,24.70
2018-05-16T12:44:13.580Z,24.70
2018-05-16T12:46:41.233Z,24.80
2018-05-16T12:49:08.684Z,25.10
2018-05-16T12:51:36.284Z,25.40
2018-05-16T12:54:03.851Z,25.30
2018-05-16T12:56:31.390Z,24.80
2018-05-16T12:58:59.727Z,23.70
2018-05-16T13:01:27.298Z,23.60
2018-05-16T13:03:54.815Z,23.20
2018-05-16T13:06:22.372Z,22.80
2018-05-16T13:08:49.932Z,22.50
2018-05-16T13:11:17.541Z,22.20
2018-05-16T13:13:45.042Z,21.90
2018-05-16T13:16:12.590Z,21.70
2018-05-16T13:18:40.922Z,21.30
2018-05-16T13:21:08.659Z,21.30
2018-05-16T13:23:37.172Z,21.10
2018-05-16T13:26:04.707Z,21.10
2018-05-16T13:28:32.263Z,21.00
2018-05-16T13:30:59.899Z,21.00
2018-05-16T13:33:27.448Z,21.00
2018-05-16T13:35:55.762Z,21.00
2018-05-16T13:38:23.312Z,21.00
2018-05-16T13:40:51.683Z,21.10
2018-05-16T13:43:20.332Z,21.20
2018-05-16T13:45:47.940Z,21.10
2018-05-16T13:48:15.699Z,21.20
2018-05-16T13:50:43.503Z,21.30
2018-05-16T13:53:11.043Z,21.40
2018-05-16T13:55:38.607Z,21.40
2018-05-16T13:58:06.286Z,21.50
2018-05-16T14:00:33.840Z,21.70
2018-05-16T14:03:01.739Z,21.90
2018-05-16T14:05:29.306Z,22.00
2018-05-16T14:07:56.856Z,22.00
2018-05-16T14:10:25.207Z,22.30
2018-05-16T14:12:52.750Z,22.30
2018-05-16T14:15:20.561Z,22.50
2018-05-16T14:17:48.792Z,23.10
2018-05-16T14:20:16.355Z,23.00
2018-05-16T14:22:44.745Z,23.80
2018-05-16T14:25:13.090Z,24.20
2018-05-16T14:27:40.918Z,24.20
2018-05-16T14:30:09.211Z,24.80
2018-05-16T14:32:36.839Z,24.80
2018-05-16T14:35:04.411Z,25.00
2018-05-16T14:37:31.931Z,25.00
2018-05-16T14:39:59.636Z,25.00
2018-05-16T14:42:27.201Z,24.80
2018-05-16T14:44:54.787Z,24.40
2018-05-16T14:47:22.366Z,24.00
2018-05-16T14:49:49.907Z,23.70
2018-05-16T14:52:17.466Z,23.30
2018-05-16T14:54:46.971Z,22.90
2018-05-16T14:57:15.335Z,22.20
2018-05-16T14:59:43.047Z,22.20
2018-05-16T15:02:11.379Z,21.80
2018-05-16T15:04:38.920Z,21.80
2018-05-16T15:07:07.467Z,21.60
2018-05-16T15:09:35.004Z,21.60
2018-05-16T15:12:02.554Z,21.60
2018-05-16T15:14:30.103Z,21.60
2018-05-16T15:16:57.667Z,21.50
2018-05-16T15:19:25.211Z,21.20
2018-05-16T15:21:52.806Z,21.10
2018-05-16T15:24:20.425Z,21.10
2018-05-16T15:26:48.759Z,21.00
2018-05-16T15:29:16.305Z,21.00
2018-05-16T15:31:44.003Z,21.10
2018-05-16T15:34:11.591Z,21.00
2018-05-16T15:36:39.132Z,21.00
2018-05-16T15:39:06.751Z,21.20
2018-05-16T15:41:34.308Z,21.30
2018-05-16T15:44:01.872Z,21.40
2018-05-16T15:46:29.512Z,21.50
2018-05-16T15:48:57.075Z,21.60
2018-05-16T15:51:25.404Z,21.70
2018-05-16T15:53:52.952Z,21.70
2018-05-16T15:56:20.727Z,21.70
2018-05-16T15:58:48.268Z,21.60
2018-05-16T16:01:15.808Z,21.60
2018-05-16T16:03:43.549Z,21.70
2018-05-16T16:06:11.088Z,21.70
2018-05-16T16:08:38.657Z,21.70
2018-05-16T16:11:06.340Z,21.60
2018-05-16T16:13:34.032Z,21.40
2018-05-16T16:16:02.371Z,21.50
2018-05-16T16:18:29.913Z,21.50
2018-05-16T16:20:57.485Z,21.60
2018-05-16T16:23:25.015Z,21.80
2018-05-16T16:25:53.318Z,22.10
2018-05-16T16:28:21.671Z,22.30
2018-05-16T16:30:49.211Z,22.20
2018-05-16T16:33:16.759Z,22.20
2018-05-16T16:35:45.277Z,22.00
2018-05-16T16:38:13.639Z,22.00
2018-05-16T16:40:41.163Z,22.00
2018-05-16T16:43:08.744Z,22.00
2018-05-16T16:45:37.036Z,22.00
2018-05-16T16:48:04.603Z,22.00
2018-05-16T16:50:32.297Z,22.00
2018-05-16T16:53:00.470Z,22.00
2018-05-16T16:55:28.130Z,22.00
2018-05-16T16:57:55.663Z,21.90
2018-05-16T17:00:23.968Z,21.90
2018-05-16T17:02:51.659Z,21.80
2018-05-16T17:05:19.214Z,21.80
2018-05-16T17:07:47.514Z,21.70
2018-05-16T17:10:15.215Z,21.70
2018-05-16T17:12:42.759Z,21.70
2018-05-16T17:15:10.326Z,21.60
2018-05-16T17:17:37.845Z,21.40
2018-05-16T17:20:05.418Z,21.30
2018-05-16T17:22:32.948Z,21.20
2018-05-16T17:25:01.273Z,20.80
2018-05-16T17:27:28.907Z,20.70
2018-05-16T17:29:57.216Z,20.30
2018-05-16T17:32:24.761Z,20.30
2018-05-16T17:34:53.063Z,20.00
2018-05-16T17:37:20.641Z,20.00
2018-05-16T17:39:48.187Z,19.80
2018-05-16T17:42:15.735Z,19.60
2018-05-16T17:44:43.313Z,19.40
2018-05-16T17:47:10.847Z,19.40
2018-05-16T17:49:38.509Z,19.30
2018-05-16T17:52:06.814Z,19.00
2018-05-16T17:54:34.351Z,19.00
2018-05-16T17:57:02.662Z,18.90
2018-05-16T17:59:30.963Z,18.90
2018-05-16T18:01:59.074Z,18.80
2018-05-16T18:04:26.604Z,18.80
2018-05-16T18:06:54.159Z,18.70
2018-05-16T18:09:22.471Z,18.70
2018-05-16T18:11:50.024Z,18.70
2018-05-16T18:17:34.872Z,18.60
2018-05-16T18:20:02.932Z,18.60
2018-05-16T18:22:31.237Z,18.50
2018-05-16T18:24:58.916Z,18.50
2018-05-16T18:27:26.489Z,18.60
2018-05-16T18:29:54.164Z,18.60
2018-05-16T18:32:22.725Z,18.50
2018-05-16T18:34:51.364Z,18.50
2018-05-16T18:37:19.010Z,18.50
2018-05-16T18:39:48.270Z,18.50
2018-05-16T18:42:15.805Z,18.50
2018-05-16T18:44:43.297Z,18.50
2018-05-16T18:47:10.902Z,18.50
2018-05-16T18:49:38.656Z,18.50
2018-05-16T18:52:06.607Z,18.50
2018-05-16T18:54:34.067Z,18.50
2018-05-16T18:57:02.688Z,18.50
2018-05-16T18:59:30.400Z,18.50
2018-05-16T19:01:57.959Z,18.50
2018-05-16T19:04:25.606Z,18.40
2018-05-16T19:06:53.961Z,18.40
2018-05-16T19:09:21.527Z,18.30
2018-05-16T19:11:49.075Z,18.40
2018-05-16T19:14:16.705Z,18.30
2018-05-16T19:16:44.208Z,18.30
2018-05-16T19:19:11.866Z,18.30
2018-05-16T19:21:39.398Z,18.20
2018-05-16T19:24:06.952Z,18.20
2018-05-16T19:26:34.499Z,18.30
2018-05-16T19:29:02.039Z,18.30
2018-05-16T19:31:30.374Z,18.20
2018-05-16T19:33:57.919Z,18.20
2018-05-16T19:36:25.488Z,18.10
2018-05-16T19:38:53.055Z,18.00
2018-05-16T19:41:20.666Z,18.00
2018-05-16T19:43:48.211Z,18.00
2018-05-16T19:46:15.784Z,18.00
2018-05-16T19:48:44.232Z,18.00
2018-05-16T19:51:11.775Z,18.00
2018-05-16T19:53:39.317Z,18.00
2018-05-16T19:56:06.979Z,18.00
2018-05-16T19:58:35.347Z,17.90
2018-05-16T20:01:02.826Z,17.90
2018-05-16T20:03:30.375Z,17.90
2018-05-16T20:05:57.936Z,17.90
2018-05-16T20:08:25.471Z,17.90
2018-05-16T20:10:53.782Z,17.90
2018-05-16T20:13:21.440Z,17.90
2018-05-16T20:15:49.765Z,17.90
2018-05-16T20:18:17.303Z,17.90
2018-05-16T20:20:44.936Z,17.90
2018-05-16T20:23:12.479Z,17.90
2018-05-16T20:25:40.016Z,17.90
2018-05-16T20:28:07.716Z,17.90
2018-05-16T20:30:35.252Z,17.90
2018-05-16T20:33:03.570Z,17.90
2018-05-16T20:35:31.114Z,17.90
2018-05-16T20:37:59.439Z,17.90
2018-05-16T20:40:26.980Z,17.90
2018-05-16T20:42:55.443Z,18.00
2018-05-16T20:45:23.061Z,17.90
2018-05-16T20:47:50.541Z,18.00
2018-05-16T20:50:18.080Z,17.90
2018-05-16T20:52:46.392Z,17.90
2018-05-16T20:55:14.136Z,17.90
2018-05-16T20:57:41.682Z,17.80
2018-05-16T21:00:09.218Z,17.80
2018-05-16T21:02:36.781Z,17.80
2018-05-16T21:05:05.090Z,17.70
2018-05-16T21:07:32.623Z,17.70
2018-05-16T21:10:01.931Z,17.60
2018-05-16T21:12:29.475Z,17.60
2018-05-16T21:14:57.019Z,17.60
2018-05-16T21:17:24.559Z,17.60
2018-05-16T21:19:53.603Z,17.40
2018-05-16T21:22:21.619Z,17.40
2018-05-16T21:24:49.187Z,17.40
2018-05-16T21:27:16.724Z,17.40
2018-05-16T21:29:44.295Z,17.40
2018-05-16T21:32:11.840Z,17.40
2018-05-16T21:34:40.159Z,17.40
2018-05-16T21:37:07.827Z,17.40
2018-05-16T21:39:35.380Z,17.40
2018-05-16T21:42:02.941Z,17.30
2018-05-16T21:44:30.486Z,17.10
2018-05-16T21:46:58.044Z,17.10
2018-05-16T21:49:25.574Z,17.00
2018-05-16T21:51:53.132Z,16.90
2018-05-16T21:54:20.753Z,16.90
2018-05-16T21:56:48.288Z,16.90
2018-05-16T21:59:15.852Z,16.80
2018-05-16T22:01:43.579Z,16.80
2018-05-16T22:04:11.135Z,16.80
2018-05-16T22:06:38.672Z,16.80
2018-05-16T22:09:06.207Z,16.80
2018-05-16T22:11:33.745Z,16.80
2018-05-16T22:14:01.284Z,16.80
2018-05-16T22:16:29.060Z,16.80
2018-05-16T22:18:56.596Z,16.80
2018-05-16T22:21:24.135Z,16.80
2018-05-16T22:23:52.112Z,16.70
2018-05-16T22:26:19.624Z,16.80
2018-05-16T22:28:47.151Z,16.80
2018-05-16T22:31:21.598Z,16.80
2018-05-16T22:33:55.628Z,16.70
2018-05-16T22:36:29.082Z,16.70
2018-05-16T22:39:02.595Z,16.60
2018-05-16T22:41:36.344Z,16.70
2018-05-16T22:44:07.391Z,16.60
2018-05-16T22:46:34.943Z,16.50
2018-05-16T22:49:02.479Z,16.50
2018-05-16T22:51:30.398Z,16.50
2018-05-16T22:53:58.048Z,16.50
2018-05-16T22:56:25.601Z,16.60
2018-05-16T22:58:53.994Z,16.60
2018-05-16T23:01:21.575Z,16.60
2018-05-16T23:03:49.191Z,16.70
2018-05-16T23:06:16.811Z,16.60
2018-05-16T23:08:44.391Z,16.70
2018-05-16T23:11:11.913Z,16.70
2018-05-16T23:13:39.610Z,16.70
2018-05-16T23:16:08.055Z,16.70
2018-05-16T23:18:35.642Z,16.60
2018-05-16T23:21:03.471Z,16.70
2018-05-16T23:23:31.772Z,16.60
2018-05-16T23:25:59.402Z,16.60
2018-05-16T23:28:26.948Z,16.60
2018-05-16T23:30:54.505Z,16.60
2018-05-16T23:33:22.885Z,16.50
2018-05-16T23:35:50.403Z,16.50
2018-05-16T23:38:17.955Z,16.50
2018-05-16T23:40:45.744Z,16.50
2018-05-16T23:43:13.305Z,16.50
2018-05-16T23:45:40.887Z,16.50
2018-05-16T23:48:08.433Z,16.50
2018-05-16T23:50:36.651Z,16.60
2018-05-16T23:53:04.347Z,16.60
2018-05-16T23:55:32.040Z,16.60
2018-05-16T23:58:00.463Z,16.70
